Time;durP1;ratioP1;P1;durP2;ratioP2;P2;SDS_P1;SDS_P2;PMS_P1;PMS_P2;Temp;Humidity;BMP_temperature;BMP_pressure;BME280_temperature;BME280_humidity;BME280_pressure;Samples;Min_cycle;Max_cycle;Signal;HPM_P1;HPM_P2
2021/01/25 00:05:54;;;;;;;11.87;7.47;;;;;;;18.78;37.30;99272.47;31634656;28;20050;-62
2021/01/25 00:20:55;;;;;;;10.30;6.73;;;;;;;18.71;37.78;99274.09;31620895;28;20826;-62
2021/01/25 00:35:56;;;;;;;9.80;7.27;;;;;;;18.62;38.07;99284.63;31632592;28;20305;-61
2021/01/25 00:50:57;;;;;;;9.97;6.33;;;;;;;18.52;38.12;99286.59;31620735;28;20748;-62
2021/01/25 01:05:58;;;;;;;9.57;6.67;;;;;;;18.40;38.33;99296.59;31628895;28;20317;-61
2021/01/25 01:20:59;;;;;;;9.20;6.28;;;;;;;18.31;38.42;99300.19;31608035;28;20316;-61
2021/01/25 01:36:00;;;;;;;9.80;6.13;;;;;;;18.25;38.42;99300.03;31613105;28;20445;-61
2021/01/25 01:51:01;;;;;;;9.77;5.70;;;;;;;18.11;38.68;99310.16;31620118;28;20377;-61
2021/01/25 02:06:04;;;;;;;7.70;6.00;;;;;;;18.02;38.82;99312.94;31609245;28;20838;-62
2021/01/25 02:21:06;;;;;;;7.43;5.28;;;;;;;17.89;39.14;99322.09;31610089;28;20347;-61
2021/01/25 02:36:07;;;;;;;11.00;6.15;;;;;;;17.82;39.42;99338.63;31622485;28;20032;-61
2021/01/25 02:51:08;;;;;;;8.07;5.57;;;;;;;17.72;39.46;99339.56;31620955;28;20028;-62
2021/01/25 03:06:10;;;;;;;7.53;5.63;;;;;;;17.65;39.19;99342.97;31623031;28;20028;-61
2021/01/25 03:21:11;;;;;;;6.53;4.72;;;;;;;17.59;39.29;99349.66;31619182;28;20339;-61
2021/01/25 03:36:12;;;;;;;6.73;4.60;;;;;;;17.52;39.37;99357.34;31621375;28;20119;-61
2021/01/25 03:51:14;;;;;;;7.07;4.17;;;;;;;17.47;39.38;99369.28;31620630;28;20376;-61
2021/01/25 04:06:16;;;;;;;6.45;4.50;;;;;;;17.40;39.48;99376.16;31544321;28;20291;-57
2021/01/25 04:21:17;;;;;;;7.30;4.55;;;;;;;17.36;39.51;99380.88;31582383;28;20040;-58
2021/01/25 04:36:18;;;;;;;6.70;4.43;;;;;;;17.32;39.56;99384.78;31592006;28;20036;-57
2021/01/25 04:51:19;;;;;;;6.17;4.80;;;;;;;17.27;39.44;99392.28;31584141;28;20131;-57
2021/01/25 05:06:20;;;;;;;7.27;4.97;;;;;;;17.21;39.65;99411.28;31584829;28;20651;-61
2021/01/25 05:21:35;;;;;;;5.88;4.40;;;;;;;17.17;39.49;99408.94;31592826;28;20339;-61
2021/01/25 05:36:36;;;;;;;5.75;4.13;;;;;;;17.14;39.37;99405.81;31595593;28;20063;-61
2021/01/25 05:51:39;;;;;;;5.37;3.80;;;;;;;17.10;39.76;99405.28;31614624;28;20123;-62
2021/01/25 06:06:40;;;;;;;5.47;3.95;;;;;;;17.06;39.59;99416.22;31619224;28;20821;-62
2021/01/25 06:21:41;;;;;;;5.97;4.13;;;;;;;17.00;39.58;99412.41;31623513;28;20042;-61
2021/01/25 06:36:42;;;;;;;5.22;3.90;;;;;;;16.99;39.52;99431.75;31617839;28;20298;-62
2021/01/25 06:51:43;;;;;;;5.10;3.95;;;;;;;16.96;39.56;99453.06;31626917;28;20094;-62
2021/01/25 07:06:51;;;;;;;5.90;4.00;;;;;;;16.92;39.59;99465.66;31594287;28;20036;-62
2021/01/25 07:21:53;;;;;;;26.63;19.80;;;;;;;13.04;36.41;99481.47;31601058;28;20028;-61
2021/01/25 07:36:54;;;;;;;29.65;19.40;;;;;;;10.29;43.20;99510.38;31614435;28;20048;-61
2021/01/25 07:51:55;;;;;;;19.80;12.77;;;;;;;12.77;42.14;99512.19;31590210;28;20035;-60
2021/01/25 08:06:56;;;;;;;10.88;8.13;;;;;;;14.89;39.98;99525.28;31587152;28;20054;-63
2021/01/25 08:22:03;;;;;;;13.80;10.70;;;;;;;16.06;37.60;99531.44;31577932;28;20032;-62
2021/01/25 08:37:09;;;;;;;11.32;6.03;;;;;;;17.02;36.67;99538.25;31572939;28;20097;-62
2021/01/25 08:52:25;;;;;;;8.02;5.63;;;;;;;17.82;35.72;99549.75;31574222;28;20054;-60
2021/01/25 09:07:26;;;;;;;13.18;7.22;;;;;;;18.38;35.09;99555.56;31569342;28;20035;-62
2021/01/25 09:22:27;;;;;;;8.87;6.17;;;;;;;18.83;34.92;99580.84;31570543;28;20403;-60
2021/01/25 09:37:28;;;;;;;12.97;6.20;;;;;;;19.13;34.31;99595.25;31587298;28;20308;-61
2021/01/25 09:52:29;;;;;;;21.00;14.47;;;;;;;19.14;34.06;99617.97;31562835;28;20690;-63
2021/01/25 10:07:34;;;;;;;12.47;5.63;;;;;;;19.52;34.39;99623.69;31570698;28;20290;-62
2021/01/25 10:22:35;;;;;;;10.10;5.68;;;;;;;19.81;34.46;99625.09;31570965;28;20298;-61
2021/01/25 10:37:36;;;;;;;8.17;5.53;;;;;;;19.89;34.62;99643.56;31570049;28;20412;-62
2021/01/25 10:52:38;;;;;;;10.40;6.10;;;;;;;19.90;34.60;99644.38;31579504;28;20290;-62
2021/01/25 11:07:38;;;;;;;8.95;6.03;;;;;;;19.87;36.37;99656.06;31602926;28;20035;-63
2021/01/25 11:22:40;;;;;;;7.10;5.40;;;;;;;19.78;35.44;99665.78;31612790;28;20032;-63
2021/01/25 11:37:41;;;;;;;7.30;5.53;;;;;;;20.03;35.44;99676.38;31620822;28;20395;-62
2021/01/25 11:52:42;;;;;;;7.60;5.37;;;;;;;20.29;35.44;99692.03;31580996;28;20074;-61
2021/01/25 12:07:43;;;;;;;7.13;5.03;;;;;;;20.37;35.43;99699.97;31579454;28;20297;-60
2021/01/25 12:22:44;;;;;;;8.47;5.40;;;;;;;20.39;35.65;99702.47;31569659;28;20294;-62
2021/01/25 12:37:46;;;;;;;7.27;5.23;;;;;;;20.39;35.79;99700.63;31529342;28;20308;-61
2021/01/25 12:52:46;;;;;;;7.07;5.03;;;;;;;20.48;35.70;99710.19;31359255;28;21182;-62
2021/01/25 13:07:48;;;;;;;8.30;5.90;;;;;;;20.52;36.13;99721.25;31381268;28;20060;-61
2021/01/25 13:22:48;;;;;;;10.37;7.90;;;;;;;20.36;35.55;99722.06;31362671;28;20288;-61
2021/01/25 13:37:49;;;;;;;22.47;17.77;;;;;;;20.46;34.67;99725.38;31351594;28;20280;-62
2021/01/25 13:52:50;;;;;;;12.63;9.60;;;;;;;20.69;34.82;99730.84;31349589;28;20279;-62
2021/01/25 14:07:51;;;;;;;11.33;9.27;;;;;;;20.68;35.04;99752.97;31352878;28;20303;-62
2021/01/25 14:22:52;;;;;;;10.30;8.77;;;;;;;20.70;35.14;99766.81;31375265;28;20298;-61
2021/01/25 14:37:53;;;;;;;11.35;8.98;;;;;;;20.68;35.40;99768.81;31369731;28;20317;-62
2021/01/25 14:52:54;;;;;;;10.57;8.93;;;;;;;20.47;35.37;99802.75;31371148;28;20025;-62
2021/01/25 15:07:55;;;;;;;11.85;9.27;;;;;;;20.58;35.31;99815.66;31363103;28;20303;-62
2021/01/25 15:22:57;;;;;;;10.80;8.20;;;;;;;20.68;35.98;99833.97;31365488;28;20039;-62
2021/01/25 15:37:58;;;;;;;11.77;8.50;;;;;;;20.75;35.72;99856.09;31365864;28;20307;-59
2021/01/25 15:52:59;;;;;;;43.93;35.37;;;;;;;20.59;34.38;99879.84;31359901;28;20021;-61
2021/01/25 16:08:00;;;;;;;11.87;9.77;;;;;;;20.64;35.64;99893.41;31362250;28;20295;-59
2021/01/25 16:23:01;;;;;;;10.90;9.60;;;;;;;20.74;35.61;99893.25;31361812;28;20299;-59
2021/01/25 16:38:02;;;;;;;10.40;8.43;;;;;;;20.75;35.83;99914.19;31360672;28;20325;-59
2021/01/25 16:53:03;;;;;;;11.10;8.43;;;;;;;20.80;35.86;99921.63;31357236;28;20299;-57
2021/01/25 17:08:05;;;;;;;16.33;13.23;;;;;;;20.61;32.42;99946.50;31356478;28;20298;-61
2021/01/25 17:23:07;;;;;;;10.75;8.02;;;;;;;20.51;34.06;99957.19;31354878;28;20299;-59
2021/01/25 17:38:08;;;;;;;9.43;6.78;;;;;;;20.48;35.23;99976.81;31346072;28;20090;-57
2021/01/25 17:53:12;;;;;;;8.87;6.83;;;;;;;20.38;35.24;99985.81;31353837;28;20037;-57
2021/01/25 18:08:13;;;;;;;24.25;17.40;;;;;;;15.12;31.34;99991.78;31379605;28;20362;-57
2021/01/25 18:23:14;;;;;;;23.13;15.77;;;;;;;12.70;39.93;100003.81;31394280;28;20021;-59
2021/01/25 18:38:15;;;;;;;13.60;8.77;;;;;;;15.81;40.47;100011.50;31431833;28;20584;-60
2021/01/25 18:53:16;;;;;;;12.18;7.63;;;;;;;17.61;37.78;100025.63;31472136;28;20024;-62
2021/01/25 19:08:17;;;;;;;10.90;7.65;;;;;;;18.64;36.64;100039.81;31378116;28;20041;-61
2021/01/25 19:23:18;;;;;;;10.67;8.40;;;;;;;19.34;33.07;100055.94;31371089;28;20486;-61
2021/01/25 19:38:19;;;;;;;14.43;9.13;;;;;;;19.62;32.17;100071.66;31382067;28;20294;-62
2021/01/25 19:53:20;;;;;;;12.20;8.70;;;;;;;19.77;31.40;100080.75;31363607;28;20768;-61
2021/01/25 20:08:21;;;;;;;12.15;8.60;;;;;;;19.73;31.24;100095.22;31362543;28;20295;-60
2021/01/25 20:23:34;;;;;;;11.75;8.30;;;;;;;19.72;31.21;100112.00;31370622;28;20110;-62
2021/01/25 20:38:35;;;;;;;12.38;8.55;;;;;;;19.87;31.18;100122.84;31355146;28;20102;-61
2021/01/25 20:53:36;;;;;;;10.57;8.25;;;;;;;20.02;30.69;100134.53;31362936;28;20094;-62
2021/01/25 21:08:37;;;;;;;10.00;7.82;;;;;;;20.05;30.89;100157.97;31351392;28;20033;-63
2021/01/25 21:23:38;;;;;;;12.57;9.70;;;;;;;19.94;31.84;100152.91;31357569;28;20033;-63
2021/01/25 21:38:39;;;;;;;16.60;11.68;;;;;;;18.97;31.11;100158.75;31340234;28;20376;-63
2021/01/25 21:53:40;;;;;;;14.80;11.05;;;;;;;19.58;29.78;100163.41;31351273;28;20072;-63
2021/01/25 22:08:41;;;;;;;21.87;17.03;;;;;;;19.69;26.02;100162.41;31342648;28;20049;-63
2021/01/25 22:23:42;;;;;;;14.63;10.00;;;;;;;19.44;28.54;100183.19;31344064;28;20295;-62
2021/01/25 22:38:43;;;;;;;11.98;8.30;;;;;;;19.55;31.15;100181.34;31338908;28;20339;-63
2021/01/25 22:53:44;;;;;;;21.10;13.30;;;;;;;19.79;31.82;100189.53;31386848;28;20526;-64
2021/01/25 23:08:46;;;;;;;23.53;18.43;;;;;;;18.77;25.71;100192.19;31368053;28;20296;-63
2021/01/25 23:23:46;;;;;;;18.92;11.55;;;;;;;16.85;34.58;100194.22;31362818;28;20299;-63
2021/01/25 23:38:47;;;;;;;11.70;7.85;;;;;;;17.88;33.37;100200.25;31342212;28;20537;-63
2021/01/25 23:53:48;;;;;;;10.30;7.53;;;;;;;18.24;33.67;100200.56;31367843;28;20052;-62
